createdAt,value
2018-09-20T00:01:53.766Z,18.50
2018-09-20T00:06:48.286Z,18.40
2018-09-20T00:11:43.017Z,18.40
2018-09-20T00:16:37.491Z,18.40
2018-09-20T00:21:31.978Z,18.40
2018-09-20T00:26:26.666Z,18.30
2018-09-20T00:31:21.561Z,18.30
2018-09-20T00:36:16.261Z,18.30
2018-09-20T00:46:05.245Z,18.30
2018-09-20T00:50:59.778Z,18.30
2018-09-20T00:55:54.281Z,18.20
2018-09-20T01:00:48.822Z,18.10
2018-09-20T01:05:43.498Z,18.00
2018-09-20T01:10:38.061Z,18.00
2018-09-20T01:15:32.526Z,18.00
2018-09-20T01:20:27.142Z,18.00
2018-09-20T01:25:21.922Z,17.90
2018-09-20T01:30:16.384Z,18.00
2018-09-20T01:35:10.888Z,17.90
2018-09-20T01:40:05.535Z,17.90
2018-09-20T01:45:00.346Z,17.80
2018-09-20T01:49:55.143Z,17.70
2018-09-20T01:54:49.644Z,17.70
2018-09-20T01:59:44.319Z,17.60
2018-09-20T02:04:38.804Z,17.60
2018-09-20T02:09:33.301Z,17.60
2018-09-20T02:14:27.789Z,17.50
2018-09-20T02:19:22.236Z,17.40
2018-09-20T02:24:16.814Z,17.40
2018-09-20T02:29:11.265Z,17.30
2018-09-20T02:34:05.749Z,17.20
2018-09-20T02:39:00.239Z,17.20
2018-09-20T02:43:54.913Z,17.10
2018-09-20T02:48:49.688Z,17.10
2018-09-20T02:53:44.132Z,17.10
2018-09-20T02:58:38.628Z,17.00
2018-09-20T03:03:33.189Z,17.00
2018-09-20T03:08:27.669Z,16.90
2018-09-20T03:13:22.130Z,16.90
2018-09-20T03:18:16.780Z,16.90
2018-09-20T03:23:11.276Z,16.80
2018-09-20T03:28:06.079Z,16.80
2018-09-20T03:33:00.569Z,16.80
2018-09-20T03:37:55.310Z,16.80
2018-09-20T03:42:49.809Z,16.80
2018-09-20T03:47:44.452Z,16.70
2018-09-20T03:52:39.197Z,16.70
2018-09-20T03:57:33.852Z,16.70
2018-09-20T04:02:28.303Z,16.70
2018-09-20T04:07:22.901Z,16.60
2018-09-20T04:12:17.745Z,16.60
2018-09-20T04:17:12.227Z,16.50
2018-09-20T04:22:07.082Z,16.40
2018-09-20T04:27:01.566Z,16.40
2018-09-20T04:31:56.466Z,16.50
2018-09-20T04:36:51.539Z,16.50
2018-09-20T04:41:46.039Z,16.40
2018-09-20T04:46:40.736Z,16.40
2018-09-20T04:51:35.399Z,16.40
2018-09-20T04:56:30.093Z,16.40
2018-09-20T05:01:24.573Z,16.40
2018-09-20T05:06:19.023Z,16.40
2018-09-20T05:11:13.491Z,16.40
2018-09-20T05:16:07.936Z,16.40
2018-09-20T05:21:02.421Z,16.50
2018-09-20T05:25:56.923Z,16.60
2018-09-20T05:30:51.468Z,16.60
2018-09-20T05:35:46.568Z,16.70
2018-09-20T05:40:41.053Z,16.90
2018-09-20T05:45:35.532Z,17.00
2018-09-20T05:50:30.020Z,17.20
2018-09-20T05:55:24.930Z,17.30
2018-09-20T06:00:19.438Z,17.50
2018-09-20T06:05:13.918Z,17.70
2018-09-20T06:10:08.539Z,17.80
2018-09-20T06:15:03.621Z,18.10
2018-09-20T06:19:58.594Z,18.30
2018-09-20T06:24:53.145Z,18.60
2018-09-20T06:29:47.620Z,18.80
2018-09-20T06:34:43.135Z,19.00
2018-09-20T06:39:37.780Z,21.40
2018-09-20T06:44:33.271Z,23.70
2018-09-20T06:49:28.409Z,23.70
2018-09-20T06:54:22.877Z,24.80
2018-09-20T06:59:17.606Z,27.10
2018-09-20T07:04:12.331Z,27.10
2018-09-20T07:09:11.450Z,26.50
2018-09-20T07:14:06.172Z,27.30
2018-09-20T07:19:01.563Z,29.80
2018-09-20T07:23:56.514Z,31.60
2018-09-20T07:28:51.263Z,34.50
2018-09-20T07:33:46.274Z,36.90
2018-09-20T07:38:41.246Z,39.00
2018-09-20T07:43:36.100Z,40.40
2018-09-20T07:48:30.987Z,40.60
2018-09-20T07:53:25.996Z,38.90
2018-09-20T07:58:20.919Z,37.30
2018-09-20T08:03:15.667Z,37.80
2018-09-20T08:08:10.680Z,39.10
2018-09-20T08:13:05.595Z,38.50
2018-09-20T08:18:00.444Z,37.00
2018-09-20T08:22:55.203Z,35.00
2018-09-20T08:27:50.269Z,37.20
2018-09-20T08:32:45.326Z,41.60
2018-09-20T08:37:40.177Z,44.70
2018-09-20T08:42:35.279Z,46.80
2018-09-20T08:47:30.179Z,48.50
2018-09-20T08:52:25.125Z,50.60
2018-09-20T08:57:19.899Z,52.60
2018-09-20T09:02:15.207Z,53.50
2018-09-20T09:07:09.972Z,54.40
2018-09-20T09:12:04.802Z,54.80
2018-09-20T09:16:59.796Z,55.30
2018-09-20T09:21:54.719Z,55.90
2018-09-20T09:26:49.463Z,54.90
2018-09-20T09:31:44.414Z,51.90
2018-09-20T09:36:39.260Z,49.70
2018-09-20T09:41:34.159Z,47.90
2018-09-20T09:46:28.921Z,47.10
2018-09-20T09:51:23.824Z,42.90
2018-09-20T09:56:18.567Z,39.90
2018-09-20T10:01:13.366Z,37.30
2018-09-20T10:06:08.116Z,35.60
2018-09-20T10:11:02.861Z,34.20
2018-09-20T10:15:57.603Z,32.90
2018-09-20T10:20:52.706Z,32.10
2018-09-20T10:25:47.464Z,31.70
2018-09-20T10:30:42.591Z,31.10
2018-09-20T10:35:37.554Z,30.60
2018-09-20T10:40:32.597Z,30.10
2018-09-20T10:45:27.330Z,29.90
2018-09-20T10:50:22.172Z,29.60
2018-09-20T10:55:16.904Z,29.40
2018-09-20T11:00:12.136Z,29.40
2018-09-20T11:05:06.989Z,28.90
2018-09-20T11:10:02.106Z,28.70
2018-09-20T11:14:56.959Z,28.40
2018-09-20T11:19:51.737Z,28.40
2018-09-20T11:24:46.465Z,28.30
2018-09-20T11:29:41.484Z,28.30
2018-09-20T11:34:36.517Z,28.20
2018-09-20T11:39:31.268Z,28.10
2018-09-20T11:44:26.201Z,28.20
2018-09-20T11:49:20.953Z,28.20
2018-09-20T11:54:15.788Z,28.10
2018-09-20T11:59:10.608Z,28.00
2018-09-20T12:04:05.339Z,28.00
2018-09-20T12:09:00.167Z,27.80
2018-09-20T12:13:55.002Z,27.70
2018-09-20T12:18:49.802Z,27.50
2018-09-20T12:23:44.325Z,27.50
2018-09-20T12:28:39.349Z,27.40
2018-09-20T12:33:34.140Z,27.30
2018-09-20T12:38:28.940Z,27.30
2018-09-20T12:43:23.842Z,27.20
2018-09-20T12:48:18.376Z,27.30
2018-09-20T12:53:13.048Z,27.40
2018-09-20T12:58:07.834Z,27.50
2018-09-20T13:03:02.595Z,27.50
2018-09-20T13:07:57.689Z,27.60
2018-09-20T13:12:52.477Z,27.60
2018-09-20T13:17:47.414Z,27.60
2018-09-20T13:22:42.406Z,27.60
2018-09-20T13:27:37.138Z,27.60
2018-09-20T13:32:31.964Z,27.60
2018-09-20T13:37:26.841Z,27.60
2018-09-20T13:42:21.717Z,27.60
2018-09-20T13:47:16.900Z,27.70
2018-09-20T13:52:11.645Z,27.70
2018-09-20T13:57:06.874Z,27.70
2018-09-20T14:02:01.628Z,27.70
2018-09-20T14:06:56.566Z,27.70
2018-09-20T14:11:51.284Z,27.70
2018-09-20T14:16:46.017Z,27.80
2018-09-20T14:21:40.996Z,27.90
2018-09-20T14:26:35.733Z,28.00
2018-09-20T14:31:30.474Z,28.00
2018-09-20T14:36:25.210Z,28.00
2018-09-20T14:41:19.959Z,27.90
2018-09-20T14:46:14.776Z,27.90
2018-09-20T14:51:09.685Z,27.80
2018-09-20T14:56:04.423Z,27.80
2018-09-20T15:01:00.163Z,27.70
2018-09-20T15:05:55.178Z,27.60
2018-09-20T15:10:50.375Z,27.60
2018-09-20T15:15:45.211Z,27.50
2018-09-20T15:20:39.936Z,27.30
2018-09-20T15:25:35.188Z,27.20
2018-09-20T15:30:29.934Z,27.10
2018-09-20T15:35:24.787Z,27.10
2018-09-20T15:40:20.649Z,27.10
2018-09-20T15:45:15.326Z,27.00
2018-09-20T15:50:10.167Z,26.90
2018-09-20T15:55:05.257Z,26.90
2018-09-20T16:00:00.923Z,26.80
2018-09-20T16:04:55.364Z,26.70
2018-09-20T16:09:50.275Z,26.70
2018-09-20T16:14:45.030Z,26.60
2018-09-20T16:19:39.712Z,26.40
2018-09-20T16:24:34.551Z,26.30
2018-09-20T16:29:46.133Z,26.20
2018-09-20T16:35:02.365Z,26.20
2018-09-20T16:39:59.816Z,26.10
2018-09-20T16:44:54.304Z,26.00
2018-09-20T16:49:48.989Z,26.00
2018-09-20T16:54:43.492Z,25.90
2018-09-20T16:59:38.006Z,25.70
2018-09-20T17:04:32.990Z,25.60
2018-09-20T17:09:27.912Z,25.50
2018-09-20T17:14:22.620Z,25.40
2018-09-20T17:19:17.251Z,25.20
2018-09-20T17:24:12.037Z,25.00
2018-09-20T17:29:06.875Z,24.80
2018-09-20T17:34:01.373Z,24.60
2018-09-20T17:38:57.558Z,24.40
2018-09-20T17:43:54.028Z,24.20
2018-09-20T17:48:48.532Z,24.10
2018-09-20T17:53:44.452Z,23.90
2018-09-20T17:58:40.126Z,23.70
2018-09-20T18:03:34.923Z,23.70
2018-09-20T18:08:29.404Z,23.60
2018-09-20T18:13:23.947Z,23.60
2018-09-20T18:18:18.800Z,23.40
2018-09-20T18:23:13.752Z,23.30
2018-09-20T18:28:08.538Z,23.20
2018-09-20T18:33:03.059Z,23.10
2018-09-20T18:37:57.674Z,23.00
2018-09-20T18:42:52.187Z,22.90
2018-09-20T18:47:46.714Z,22.90
2018-09-20T18:52:41.234Z,22.90
2018-09-20T18:57:35.756Z,22.80
2018-09-20T19:02:30.551Z,22.80
2018-09-20T19:07:25.126Z,22.70
2018-09-20T19:12:19.930Z,22.60
2018-09-20T19:17:14.479Z,22.60
2018-09-20T19:22:09.173Z,22.50
2018-09-20T19:27:04.087Z,22.50
2018-09-20T19:31:58.586Z,22.50
2018-09-20T19:36:53.274Z,22.40
2018-09-20T19:41:47.844Z,22.30
2018-09-20T19:46:42.514Z,22.20
2018-09-20T19:51:37.056Z,22.20
2018-09-20T19:56:31.928Z,22.10
2018-09-20T20:01:26.432Z,22.10
2018-09-20T20:06:21.000Z,22.00
2018-09-20T20:11:15.675Z,22.00
2018-09-20T20:16:10.285Z,22.00
2018-09-20T20:21:05.267Z,21.90
2018-09-20T20:26:00.169Z,21.80
2018-09-20T20:30:54.972Z,21.80
2018-09-20T20:35:49.648Z,21.70
2018-09-20T20:41:17.054Z,21.70
2018-09-20T20:46:11.545Z,21.60
2018-09-20T20:51:06.093Z,21.50
2018-09-20T20:56:00.761Z,21.40
2018-09-20T21:00:55.286Z,21.30
2018-09-20T21:05:50.695Z,21.20
2018-09-20T21:10:45.808Z,21.20
2018-09-20T21:15:41.751Z,21.10
2018-09-20T21:20:36.435Z,21.00
2018-09-20T21:25:33.163Z,20.90
2018-09-20T21:30:27.985Z,20.90
2018-09-20T21:35:22.868Z,20.90
2018-09-20T21:40:17.363Z,20.90
2018-09-20T21:45:12.546Z,20.80
2018-09-20T21:50:07.597Z,20.70
2018-09-20T21:55:03.260Z,20.70
2018-09-20T21:59:58.162Z,20.60
2018-09-20T22:04:53.562Z,20.60
2018-09-20T22:09:59.259Z,20.50
2018-09-20T22:15:13.473Z,20.50
2018-09-20T22:20:08.073Z,20.50
2018-09-20T22:25:03.788Z,20.60
2018-09-20T22:29:59.690Z,20.60
2018-09-20T22:34:54.765Z,20.60
2018-09-20T22:39:52.892Z,20.60
2018-09-20T22:44:48.116Z,20.60
2018-09-20T22:49:44.370Z,20.50
2018-09-20T22:54:40.542Z,20.50
2018-09-20T22:59:35.633Z,20.50
2018-09-20T23:04:30.658Z,20.40
2018-09-20T23:09:25.810Z,20.40
2018-09-20T23:14:20.866Z,20.40
2018-09-20T23:19:16.146Z,20.40
2018-09-20T23:24:11.497Z,20.40
2018-09-20T23:29:06.534Z,20.40
2018-09-20T23:34:01.755Z,20.40
2018-09-20T23:38:56.704Z,20.40
2018-09-20T23:43:51.732Z,20.40
2018-09-20T23:48:47.437Z,20.30
2018-09-20T23:53:43.477Z,20.30
2018-09-20T23:58:38.094Z,20.30
